sensor_id;sensor_type;location;lat;lon;timestamp;pressure;altitude;pressure_sealevel;temperature;humidity
61026;BME280;46911;32.650;-16.902;2023-11-21T00:01:57;101817.03;;;19.56;56.66
61026;BME280;46911;32.650;-16.902;2023-11-21T00:03:58;101825.16;;;19.56;55.73
61026;BME280;46911;32.650;-16.902;2023-11-21T00:06:02;101822.34;;;19.57;52.95
61026;BME280;46911;32.650;-16.902;2023-11-21T00:08:09;101826.59;;;19.60;53.07
61026;BME280;46911;32.650;-16.902;2023-11-21T00:10:12;101827.19;;;19.64;53.54
61026;BME280;46911;32.650;-16.902;2023-11-21T00:12:14;101820.69;;;19.45;53.26
61026;BME280;46911;32.650;-16.902;2023-11-21T00:14:18;101834.50;;;19.42;53.54
61026;BME280;46911;32.650;-16.902;2023-11-21T00:16:18;101821.03;;;19.31;53.40
61026;BME280;46911;32.650;-16.902;2023-11-21T00:18:21;101816.16;;;19.15;53.37
61026;BME280;46911;32.650;-16.902;2023-11-21T00:20:22;101814.25;;;19.05;54.26
61026;BME280;46911;32.650;-16.902;2023-11-21T00:22:27;101815.03;;;18.96;54.31
61026;BME280;46911;32.650;-16.902;2023-11-21T00:24:28;101798.84;;;18.85;54.13
61026;BME280;46911;32.650;-16.902;2023-11-21T00:26:32;101819.75;;;18.83;54.17
61026;BME280;46911;32.650;-16.902;2023-11-21T00:28:38;101812.44;;;18.73;54.56
61026;BME280;46911;32.650;-16.902;2023-11-21T00:30:39;101813.59;;;18.60;55.03
61026;BME280;46911;32.650;-16.902;2023-11-21T00:32:42;101816.50;;;18.47;55.07
61026;BME280;46911;32.650;-16.902;2023-11-21T00:34:46;101824.97;;;18.42;55.27
61026;BME280;46911;32.650;-16.902;2023-11-21T00:36:49;101824.88;;;18.32;55.01
61026;BME280;46911;32.650;-16.902;2023-11-21T00:38:50;101824.91;;;18.21;54.58
61026;BME280;46911;32.650;-16.902;2023-11-21T00:40:56;101826.78;;;18.09;54.76
61026;BME280;46911;32.650;-16.902;2023-11-21T00:42:57;101811.25;;;18.01;54.38
61026;BME280;46911;32.650;-16.902;2023-11-21T00:45:03;101834.78;;;18.11;54.20
61026;BME280;46911;32.650;-16.902;2023-11-21T00:47:06;101823.84;;;18.12;53.87
61026;BME280;46911;32.650;-16.902;2023-11-21T00:49:09;101827.88;;;18.50;54.03
61026;BME280;46911;32.650;-16.902;2023-11-21T00:51:13;101834.75;;;18.76;55.78
61026;BME280;46911;32.650;-16.902;2023-11-21T00:53:17;101801.81;;;18.61;55.47
61026;BME280;46911;32.650;-16.902;2023-11-21T00:55:20;101839.69;;;18.70;55.15
61026;BME280;46911;32.650;-16.902;2023-11-21T00:57:26;101842.31;;;18.72;55.16
61026;BME280;46911;32.650;-16.902;2023-11-21T00:59:27;101850.41;;;18.72;54.82
61026;BME280;46911;32.650;-16.902;2023-11-21T01:01:28;101844.94;;;18.83;54.59
61026;BME280;46911;32.650;-16.902;2023-11-21T01:03:28;101843.44;;;18.90;54.23
61026;BME280;46911;32.650;-16.902;2023-11-21T01:05:29;101822.78;;;18.68;53.91
61026;BME280;46911;32.650;-16.902;2023-11-21T01:07:30;101854.38;;;18.89;54.14
61026;BME280;46911;32.650;-16.902;2023-11-21T01:09:31;101856.50;;;18.85;54.61
61026;BME280;46911;32.650;-16.902;2023-11-21T01:11:36;101875.41;;;18.85;54.40
61026;BME280;46911;32.650;-16.902;2023-11-21T01:13:40;101869.19;;;18.73;54.06
61026;BME280;46911;32.650;-16.902;2023-11-21T01:15:41;101843.09;;;18.51;54.48
61026;BME280;46911;32.650;-16.902;2023-11-21T01:17:42;101853.44;;;18.46;54.42
61026;BME280;46911;32.650;-16.902;2023-11-21T01:19:46;101834.59;;;18.35;54.19
61026;BME280;46911;32.650;-16.902;2023-11-21T01:21:47;101845.13;;;18.38;53.07
61026;BME280;46911;32.650;-16.902;2023-11-21T01:23:51;101843.19;;;18.29;52.49
61026;BME280;46911;32.650;-16.902;2023-11-21T01:25:51;101862.44;;;18.35;51.37
61026;BME280;46911;32.650;-16.902;2023-11-21T01:27:53;101854.13;;;18.27;51.15
61026;BME280;46911;32.650;-16.902;2023-11-21T01:29:56;101869.84;;;18.33;50.53
61026;BME280;46911;32.650;-16.902;2023-11-21T01:32:05;101862.53;;;18.45;50.73
61026;BME280;46911;32.650;-16.902;2023-11-21T01:34:10;101859.81;;;18.45;48.64
61026;BME280;46911;32.650;-16.902;2023-11-21T01:36:17;101851.47;;;18.48;48.81
61026;BME280;46911;32.650;-16.902;2023-11-21T01:38:20;101843.72;;;18.55;48.17
61026;BME280;46911;32.650;-16.902;2023-11-21T01:40:21;101844.56;;;18.55;48.56
61026;BME280;46911;32.650;-16.902;2023-11-21T01:42:22;101841.25;;;18.52;49.00
61026;BME280;46911;32.650;-16.902;2023-11-21T01:44:23;101839.44;;;18.52;49.03
61026;BME280;46911;32.650;-16.902;2023-11-21T01:46:26;101816.22;;;18.50;47.16
61026;BME280;46911;32.650;-16.902;2023-11-21T01:48:30;101831.06;;;18.55;47.44
61026;BME280;46911;32.650;-16.902;2023-11-21T01:50:32;101833.88;;;18.54;47.72
61026;BME280;46911;32.650;-16.902;2023-11-21T01:52:37;101832.47;;;18.71;47.54
61026;BME280;46911;32.650;-16.902;2023-11-21T01:54:40;101818.81;;;18.72;47.59
61026;BME280;46911;32.650;-16.902;2023-11-21T01:56:47;101816.31;;;18.81;46.85
61026;BME280;46911;32.650;-16.902;2023-11-21T01:58:50;101832.75;;;18.89;47.40
61026;BME280;46911;32.650;-16.902;2023-11-21T02:00:59;101846.16;;;18.90;46.62
61026;BME280;46911;32.650;-16.902;2023-11-21T02:03:03;101845.97;;;19.03;45.99
61026;BME280;46911;32.650;-16.902;2023-11-21T02:05:07;101845.16;;;19.13;47.79
61026;BME280;46911;32.650;-16.902;2023-11-21T02:07:09;101835.41;;;19.21;47.04
61026;BME280;46911;32.650;-16.902;2023-11-21T02:09:10;101843.56;;;19.31;47.10
61026;BME280;46911;32.650;-16.902;2023-11-21T02:11:15;101837.97;;;19.23;47.18
61026;BME280;46911;32.650;-16.902;2023-11-21T02:13:16;101842.50;;;19.22;46.85
61026;BME280;46911;32.650;-16.902;2023-11-21T02:15:20;101829.53;;;19.16;46.68
61026;BME280;46911;32.650;-16.902;2023-11-21T02:17:24;101834.34;;;19.13;45.73
61026;BME280;46911;32.650;-16.902;2023-11-21T02:19:29;101816.53;;;19.10;44.88
61026;BME280;46911;32.650;-16.902;2023-11-21T02:21:31;101809.53;;;19.07;44.60
61026;BME280;46911;32.650;-16.902;2023-11-21T02:23:35;101823.25;;;19.16;43.94
61026;BME280;46911;32.650;-16.902;2023-11-21T02:25:39;101807.56;;;19.10;43.91
61026;BME280;46911;32.650;-16.902;2023-11-21T02:27:40;101813.88;;;19.20;42.79
61026;BME280;46911;32.650;-16.902;2023-11-21T02:29:44;101828.78;;;19.35;42.76
61026;BME280;46911;32.650;-16.902;2023-11-21T02:31:51;101824.50;;;19.33;42.69
61026;BME280;46911;32.650;-16.902;2023-11-21T02:33:52;101831.34;;;19.37;43.10
61026;BME280;46911;32.650;-16.902;2023-11-21T02:35:53;101818.41;;;19.40;43.49
61026;BME280;46911;32.650;-16.902;2023-11-21T02:37:55;101805.16;;;19.37;43.60
61026;BME280;46911;32.650;-16.902;2023-11-21T02:39:56;101813.38;;;19.36;43.99
61026;BME280;46911;32.650;-16.902;2023-11-21T02:41:57;101811.81;;;19.33;43.77
61026;BME280;46911;32.650;-16.902;2023-11-21T02:43:58;101819.91;;;19.33;42.77
61026;BME280;46911;32.650;-16.902;2023-11-21T02:46:01;101805.56;;;19.33;42.67
61026;BME280;46911;32.650;-16.902;2023-11-21T02:48:04;101798.69;;;19.29;42.36
61026;BME280;46911;32.650;-16.902;2023-11-21T02:50:07;101814.25;;;19.36;42.21
61026;BME280;46911;32.650;-16.902;2023-11-21T02:52:11;101802.25;;;19.29;42.28
61026;BME280;46911;32.650;-16.902;2023-11-21T02:54:11;101819.69;;;19.36;41.98
61026;BME280;46911;32.650;-16.902;2023-11-21T02:56:13;101796.00;;;19.29;42.24
61026;BME280;46911;32.650;-16.902;2023-11-21T02:58:17;101793.16;;;19.30;42.98
61026;BME280;46911;32.650;-16.902;2023-11-21T03:00:20;101814.25;;;19.36;43.21
61026;BME280;46911;32.650;-16.902;2023-11-21T03:02:25;101818.47;;;19.29;43.67
61026;BME280;46911;32.650;-16.902;2023-11-21T03:04:25;101827.00;;;19.24;43.57
61026;BME280;46911;32.650;-16.902;2023-11-21T03:06:29;101832.28;;;19.26;43.57
61026;BME280;46911;32.650;-16.902;2023-11-21T03:08:32;101835.28;;;19.23;43.29
61026;BME280;46911;32.650;-16.902;2023-11-21T03:10:33;101818.53;;;19.08;43.47
61026;BME280;46911;32.650;-16.902;2023-11-21T03:12:34;101848.19;;;19.19;43.45
61026;BME280;46911;32.650;-16.902;2023-11-21T03:14:35;101848.34;;;19.18;43.28
61026;BME280;46911;32.650;-16.902;2023-11-21T03:16:38;101840.03;;;19.10;42.94
61026;BME280;46911;32.650;-16.902;2023-11-21T03:18:41;101833.03;;;19.07;42.74
61026;BME280;46911;32.650;-16.902;2023-11-21T03:20:43;101830.47;;;19.05;42.98
61026;BME280;46911;32.650;-16.902;2023-11-21T03:22:47;101815.22;;;19.04;43.49
61026;BME280;46911;32.650;-16.902;2023-11-21T03:24:48;101832.91;;;19.09;43.69
61026;BME280;46911;32.650;-16.902;2023-11-21T03:26:49;101815.38;;;19.03;42.96
61026;BME280;46911;32.650;-16.902;2023-11-21T03:28:53;101826.22;;;19.13;42.04
61026;BME280;46911;32.650;-16.902;2023-11-21T03:30:54;101811.25;;;19.09;41.62
61026;BME280;46911;32.650;-16.902;2023-11-21T03:32:56;101830.56;;;19.25;40.74
61026;BME280;46911;32.650;-16.902;2023-11-21T03:34:58;101834.47;;;19.32;40.58
61026;BME280;46911;32.650;-16.902;2023-11-21T03:36:59;101850.88;;;19.40;41.06
61026;BME280;46911;32.650;-16.902;2023-11-21T03:39:00;101848.16;;;19.40;41.60
61026;BME280;46911;32.650;-16.902;2023-11-21T03:41:04;101837.16;;;19.32;41.85
61026;BME280;46911;32.650;-16.902;2023-11-21T03:43:05;101849.97;;;19.30;42.30
61026;BME280;46911;32.650;-16.902;2023-11-21T03:45:09;101830.09;;;19.20;42.56
61026;BME280;46911;32.650;-16.902;2023-11-21T03:47:10;101825.81;;;19.17;42.66
61026;BME280;46911;32.650;-16.902;2023-11-21T03:49:11;101835.31;;;19.12;42.62
61026;BME280;46911;32.650;-16.902;2023-11-21T03:51:16;101845.56;;;19.08;43.12
61026;BME280;46911;32.650;-16.902;2023-11-21T03:53:19;101820.69;;;18.93;43.51
61026;BME280;46911;32.650;-16.902;2023-11-21T03:55:23;101828.31;;;18.88;43.66
61026;BME280;46911;32.650;-16.902;2023-11-21T03:57:27;101820.41;;;18.75;43.93
61026;BME280;46911;32.650;-16.902;2023-11-21T03:59:30;101816.59;;;18.78;44.14
61026;BME280;46911;32.650;-16.902;2023-11-21T04:01:33;101817.69;;;18.75;44.38
61026;BME280;46911;32.650;-16.902;2023-11-21T04:03:35;101827.06;;;18.71;44.45
61026;BME280;46911;32.650;-16.902;2023-11-21T04:05:36;101831.50;;;18.72;43.96
61026;BME280;46911;32.650;-16.902;2023-11-21T04:07:42;101826.47;;;18.67;44.41
61026;BME280;46911;32.650;-16.902;2023-11-21T04:09:43;101830.34;;;18.74;43.46
61026;BME280;46911;32.650;-16.902;2023-11-21T04:11:44;101796.47;;;18.49;43.59
61026;BME280;46911;32.650;-16.902;2023-11-21T04:13:50;101808.53;;;18.66;43.06
61026;BME280;46911;32.650;-16.902;2023-11-21T04:15:53;101812.66;;;18.70;43.47
61026;BME280;46911;32.650;-16.902;2023-11-21T04:17:54;101806.44;;;18.70;42.75
61026;BME280;46911;32.650;-16.902;2023-11-21T04:19:59;101792.31;;;18.66;42.22
61026;BME280;46911;32.650;-16.902;2023-11-21T04:22:00;101805.38;;;18.82;42.74
61026;BME280;46911;32.650;-16.902;2023-11-21T04:24:01;101798.38;;;18.80;43.00
61026;BME280;46911;32.650;-16.902;2023-11-21T04:26:02;101810.31;;;18.77;42.51
61026;BME280;46911;32.650;-16.902;2023-11-21T04:28:03;101798.19;;;18.71;42.74
61026;BME280;46911;32.650;-16.902;2023-11-21T04:30:08;101814.03;;;18.76;43.10
61026;BME280;46911;32.650;-16.902;2023-11-21T04:32:10;101808.00;;;18.72;43.49
61026;BME280;46911;32.650;-16.902;2023-11-21T04:34:14;101812.94;;;18.67;44.41
61026;BME280;46911;32.650;-16.902;2023-11-21T04:36:19;101802.53;;;18.63;44.86
61026;BME280;46911;32.650;-16.902;2023-11-21T04:38:20;101811.75;;;18.60;43.47
61026;BME280;46911;32.650;-16.902;2023-11-21T04:40:23;101814.00;;;18.55;42.96
61026;BME280;46911;32.650;-16.902;2023-11-21T04:42:26;101814.50;;;18.49;43.21
61026;BME280;46911;32.650;-16.902;2023-11-21T04:44:32;101806.19;;;18.40;42.83
61026;BME280;46911;32.650;-16.902;2023-11-21T04:46:36;101798.34;;;18.37;43.33
61026;BME280;46911;32.650;-16.902;2023-11-21T04:48:37;101801.56;;;18.31;43.55
61026;BME280;46911;32.650;-16.902;2023-11-21T04:50:40;101800.38;;;18.24;43.49
61026;BME280;46911;32.650;-16.902;2023-11-21T04:52:41;101802.81;;;18.16;43.38
61026;BME280;46911;32.650;-16.902;2023-11-21T04:54:42;101808.75;;;18.10;43.42
61026;BME280;46911;32.650;-16.902;2023-11-21T04:56:43;101808.41;;;18.03;42.96
61026;BME280;46911;32.650;-16.902;2023-11-21T04:58:44;101799.44;;;18.02;43.39
61026;BME280;46911;32.650;-16.902;2023-11-21T05:00:45;101798.97;;;17.97;43.69
61026;BME280;46911;32.650;-16.902;2023-11-21T05:02:46;101800.28;;;17.91;43.66
61026;BME280;46911;32.650;-16.902;2023-11-21T05:04:50;101793.06;;;17.81;43.62
61026;BME280;46911;32.650;-16.902;2023-11-21T05:06:51;101789.88;;;17.76;43.82
61026;BME280;46911;32.650;-16.902;2023-11-21T05:08:52;101798.09;;;17.74;44.21
61026;BME280;46911;32.650;-16.902;2023-11-21T05:10:55;101779.38;;;17.61;44.65
61026;BME280;46911;32.650;-16.902;2023-11-21T05:12:56;101766.63;;;17.52;44.45
61026;BME280;46911;32.650;-16.902;2023-11-21T05:14:59;101781.06;;;17.62;44.51
61026;BME280;46911;32.650;-16.902;2023-11-21T05:17:01;101783.78;;;17.62;44.05
61026;BME280;46911;32.650;-16.902;2023-11-21T05:19:04;101798.72;;;17.66;43.70
61026;BME280;46911;32.650;-16.902;2023-11-21T05:21:06;101788.81;;;17.55;43.45
61026;BME280;46911;32.650;-16.902;2023-11-21T05:23:10;101799.13;;;17.62;43.13
61026;BME280;46911;32.650;-16.902;2023-11-21T05:25:11;101789.69;;;17.56;43.59
61026;BME280;46911;32.650;-16.902;2023-11-21T05:27:12;101793.22;;;17.56;43.31
61026;BME280;46911;32.650;-16.902;2023-11-21T05:29:16;101802.16;;;17.57;43.40
61026;BME280;46911;32.650;-16.902;2023-11-21T05:31:17;101801.44;;;17.55;44.25
61026;BME280;46911;32.650;-16.902;2023-11-21T05:33:18;101796.19;;;17.53;44.36
61026;BME280;46911;32.650;-16.902;2023-11-21T05:35:19;101787.72;;;17.47;44.14
61026;BME280;46911;32.650;-16.902;2023-11-21T05:37:21;101800.47;;;17.45;44.39
61026;BME280;46911;32.650;-16.902;2023-11-21T05:39:26;101806.81;;;17.44;43.70
61026;BME280;46911;32.650;-16.902;2023-11-21T05:41:31;101811.50;;;17.42;43.54
61026;BME280;46911;32.650;-16.902;2023-11-21T05:43:31;101807.09;;;17.40;43.29
61026;BME280;46911;32.650;-16.902;2023-11-21T05:45:36;101790.28;;;17.37;42.97
61026;BME280;46911;32.650;-16.902;2023-11-21T05:47:42;101790.41;;;17.35;43.78
61026;BME280;46911;32.650;-16.902;2023-11-21T05:49:48;101798.63;;;17.45;44.04
61026;BME280;46911;32.650;-16.902;2023-11-21T05:51:56;101803.53;;;17.40;44.08
61026;BME280;46911;32.650;-16.902;2023-11-21T05:53:57;101811.84;;;17.37;45.41
61026;BME280;46911;32.650;-16.902;2023-11-21T05:55:58;101812.47;;;17.40;44.52
61026;BME280;46911;32.650;-16.902;2023-11-21T05:58:02;101811.50;;;17.42;44.77
61026;BME280;46911;32.650;-16.902;2023-11-21T06:00:06;101811.63;;;17.40;45.63
61026;BME280;46911;32.650;-16.902;2023-11-21T06:02:20;101815.94;;;17.43;45.22
61026;BME280;46911;32.650;-16.902;2023-11-21T06:04:21;101818.75;;;17.41;45.23
61026;BME280;46911;32.650;-16.902;2023-11-21T06:06:24;101828.03;;;17.37;45.58
61026;BME280;46911;32.650;-16.902;2023-11-21T06:08:28;101824.00;;;17.31;45.51
61026;BME280;46911;32.650;-16.902;2023-11-21T06:10:31;101830.00;;;17.35;45.45
61026;BME280;46911;32.650;-16.902;2023-11-21T06:12:32;101839.44;;;17.29;45.42
61026;BME280;46911;32.650;-16.902;2023-11-21T06:14:36;101839.91;;;17.23;46.07
61026;BME280;46911;32.650;-16.902;2023-11-21T06:16:37;101829.22;;;17.10;45.58
61026;BME280;46911;32.650;-16.902;2023-11-21T06:18:38;101827.41;;;17.11;44.87
61026;BME280;46911;32.650;-16.902;2023-11-21T06:20:39;101852.06;;;17.17;44.93
61026;BME280;46911;32.650;-16.902;2023-11-21T06:22:43;101851.94;;;17.19;43.99
61026;BME280;46911;32.650;-16.902;2023-11-21T06:24:44;101844.56;;;17.21;43.91
61026;BME280;46911;32.650;-16.902;2023-11-21T06:26:47;101845.56;;;17.20;44.42
61026;BME280;46911;32.650;-16.902;2023-11-21T06:28:51;101869.00;;;17.31;44.82
61026;BME280;46911;32.650;-16.902;2023-11-21T06:30:53;101864.94;;;17.36;45.02
61026;BME280;46911;32.650;-16.902;2023-11-21T06:32:54;101869.13;;;17.40;45.46
61026;BME280;46911;32.650;-16.902;2023-11-21T06:34:58;101861.16;;;17.39;45.89
61026;BME280;46911;32.650;-16.902;2023-11-21T06:37:02;101850.97;;;17.31;45.27
61026;BME280;46911;32.650;-16.902;2023-11-21T06:39:06;101869.50;;;17.36;44.93
61026;BME280;46911;32.650;-16.902;2023-11-21T06:41:10;101877.22;;;17.40;44.96
61026;BME280;46911;32.650;-16.902;2023-11-21T06:43:11;101885.56;;;17.37;45.24
61026;BME280;46911;32.650;-16.902;2023-11-21T06:45:17;101897.56;;;17.33;45.31
61026;BME280;46911;32.650;-16.902;2023-11-21T06:47:19;101900.97;;;17.35;45.72
61026;BME280;46911;32.650;-16.902;2023-11-21T06:49:22;101868.09;;;17.19;45.88
61026;BME280;46911;32.650;-16.902;2023-11-21T06:51:26;101900.59;;;17.29;46.26
61026;BME280;46911;32.650;-16.902;2023-11-21T06:53:29;101899.25;;;17.23;46.23
61026;BME280;46911;32.650;-16.902;2023-11-21T06:55:32;101867.34;;;17.05;46.31
61026;BME280;46911;32.650;-16.902;2023-11-21T06:57:36;101901.31;;;17.19;46.80
61026;BME280;46911;32.650;-16.902;2023-11-21T06:59:37;101894.81;;;17.11;45.77
61026;BME280;46911;32.650;-16.902;2023-11-21T07:01:41;101899.63;;;17.18;44.42
61026;BME280;46911;32.650;-16.902;2023-11-21T07:03:44;101924.16;;;17.38;46.26
61026;BME280;46911;32.650;-16.902;2023-11-21T07:05:49;101925.03;;;17.38;46.08
61026;BME280;46911;32.650;-16.902;2023-11-21T07:07:50;101935.91;;;17.37;47.26
61026;BME280;46911;32.650;-16.902;2023-11-21T07:09:53;101921.44;;;17.27;47.76
61026;BME280;46911;32.650;-16.902;2023-11-21T07:11:54;101930.78;;;17.34;48.29
61026;BME280;46911;32.650;-16.902;2023-11-21T07:13:58;101944.13;;;17.35;48.79
61026;BME280;46911;32.650;-16.902;2023-11-21T07:15:59;101941.41;;;17.24;49.22
61026;BME280;46911;32.650;-16.902;2023-11-21T07:18:00;101956.22;;;17.18;49.38
61026;BME280;46911;32.650;-16.902;2023-11-21T07:20:06;101951.94;;;17.16;49.54
61026;BME280;46911;32.650;-16.902;2023-11-21T07:22:10;101955.34;;;17.06;49.93
61026;BME280;46911;32.650;-16.902;2023-11-21T07:24:13;101962.53;;;17.06;49.70
61026;BME280;46911;32.650;-16.902;2023-11-21T07:26:14;101965.03;;;17.09;50.17
61026;BME280;46911;32.650;-16.902;2023-11-21T07:28:15;101949.03;;;16.95;49.66
61026;BME280;46911;32.650;-16.902;2023-11-21T07:30:19;101964.13;;;16.97;49.52
61026;BME280;46911;32.650;-16.902;2023-11-21T07:32:22;101963.16;;;16.98;49.31
61026;BME280;46911;32.650;-16.902;2023-11-21T07:34:23;101954.66;;;16.92;49.50
61026;BME280;46911;32.650;-16.902;2023-11-21T07:36:27;101942.06;;;16.79;49.02
61026;BME280;46911;32.650;-16.902;2023-11-21T07:38:33;101939.59;;;16.76;48.59
61026;BME280;46911;32.650;-16.902;2023-11-21T07:40:34;101956.88;;;16.85;48.63
61026;BME280;46911;32.650;-16.902;2023-11-21T07:42:35;101953.34;;;16.84;48.63
61026;BME280;46911;32.650;-16.902;2023-11-21T07:44:36;101959.09;;;16.80;48.64
61026;BME280;46911;32.650;-16.902;2023-11-21T07:46:37;101949.72;;;16.72;48.45
61026;BME280;46911;32.650;-16.902;2023-11-21T07:48:45;101965.44;;;16.79;47.33
61026;BME280;46911;32.650;-16.902;2023-11-21T07:50:46;101968.38;;;16.76;47.11
61026;BME280;46911;32.650;-16.902;2023-11-21T07:52:49;101980.72;;;16.91;47.63
61026;BME280;46911;32.650;-16.902;2023-11-21T07:54:50;101970.72;;;16.93;47.69
61026;BME280;46911;32.650;-16.902;2023-11-21T07:56:51;101969.09;;;16.90;47.79
61026;BME280;46911;32.650;-16.902;2023-11-21T07:58:55;101983.59;;;17.01;48.21
61026;BME280;46911;32.650;-16.902;2023-11-21T08:01:00;101981.66;;;17.03;48.37
61026;BME280;46911;32.650;-16.902;2023-11-21T08:03:01;101975.22;;;16.93;49.02
61026;BME280;46911;32.650;-16.902;2023-11-21T08:05:02;101990.09;;;16.98;48.65
61026;BME280;46911;32.650;-16.902;2023-11-21T08:07:03;101979.41;;;16.97;48.58
61026;BME280;46911;32.650;-16.902;2023-11-21T08:09:04;101989.34;;;16.96;48.35
61026;BME280;46911;32.650;-16.902;2023-11-21T08:11:08;101997.19;;;16.99;48.17
61026;BME280;46911;32.650;-16.902;2023-11-21T08:13:10;101989.38;;;17.07;48.48
61026;BME280;46911;32.650;-16.902;2023-11-21T08:15:15;101995.66;;;17.08;48.95
61026;BME280;46911;32.650;-16.902;2023-11-21T08:17:18;102001.84;;;17.21;49.05
61026;BME280;46911;32.650;-16.902;2023-11-21T08:19:20;102008.25;;;17.32;49.06
61026;BME280;46911;32.650;-16.902;2023-11-21T08:21:22;102011.34;;;17.38;49.21
61026;BME280;46911;32.650;-16.902;2023-11-21T08:23:25;101997.72;;;17.40;49.20
61026;BME280;46911;32.650;-16.902;2023-11-21T08:25:26;102002.19;;;17.52;49.48
61026;BME280;46911;32.650;-16.902;2023-11-21T08:27:27;102007.97;;;17.59;49.18
61026;BME280;46911;32.650;-16.902;2023-11-21T08:29:28;102011.16;;;17.64;49.18
61026;BME280;46911;32.650;-16.902;2023-11-21T08:31:29;102021.50;;;17.70;49.09
61026;BME280;46911;32.650;-16.902;2023-11-21T08:33:30;102029.84;;;17.79;49.44
61026;BME280;46911;32.650;-16.902;2023-11-21T08:35:31;102015.84;;;17.85;49.65
61026;BME280;46911;32.650;-16.902;2023-11-21T08:37:32;102019.84;;;17.92;49.64
61026;BME280;46911;32.650;-16.902;2023-11-21T08:39:39;102013.84;;;18.00;49.50
61026;BME280;46911;32.650;-16.902;2023-11-21T08:41:42;102020.34;;;18.09;49.19
61026;BME280;46911;32.650;-16.902;2023-11-21T08:43:43;102026.59;;;18.20;49.07
61026;BME280;46911;32.650;-16.902;2023-11-21T08:45:45;102034.69;;;18.32;48.82
61026;BME280;46911;32.650;-16.902;2023-11-21T08:47:46;102037.19;;;18.35;49.20
61026;BME280;46911;32.650;-16.902;2023-11-21T08:49:47;102041.09;;;18.53;49.45
61026;BME280;46911;32.650;-16.902;2023-11-21T08:51:48;102044.75;;;18.64;49.93
61026;BME280;46911;32.650;-16.902;2023-11-21T08:53:49;102057.53;;;18.73;49.18
61026;BME280;46911;32.650;-16.902;2023-11-21T08:55:50;102050.13;;;18.86;48.62
61026;BME280;46911;32.650;-16.902;2023-11-21T08:57:51;102042.88;;;18.98;49.66
61026;BME280;46911;32.650;-16.902;2023-11-21T08:59:54;102047.75;;;19.16;49.33
61026;BME280;46911;32.650;-16.902;2023-11-21T09:01:58;102047.94;;;19.24;49.34
61026;BME280;46911;32.650;-16.902;2023-11-21T09:03:59;102050.75;;;19.34;47.96
61026;BME280;46911;32.650;-16.902;2023-11-21T09:06:00;102052.16;;;19.49;47.69
61026;BME280;46911;32.650;-16.902;2023-11-21T09:08:01;102054.53;;;19.64;47.90
61026;BME280;46911;32.650;-16.902;2023-11-21T09:10:03;102063.59;;;19.74;47.45
61026;BME280;46911;32.650;-16.902;2023-11-21T09:12:09;102062.44;;;19.88;46.42
61026;BME280;46911;32.650;-16.902;2023-11-21T09:14:14;102060.13;;;20.04;46.00
61026;BME280;46911;32.650;-16.902;2023-11-21T09:16:16;102060.78;;;20.18;45.99
61026;BME280;46911;32.650;-16.902;2023-11-21T09:18:22;102063.09;;;20.32;45.62
61026;BME280;46911;32.650;-16.902;2023-11-21T09:20:26;102057.19;;;20.48;45.58
61026;BME280;46911;32.650;-16.902;2023-11-21T09:22:29;102062.38;;;20.61;45.33
61026;BME280;46911;32.650;-16.902;2023-11-21T09:24:33;102069.19;;;20.77;44.71
61026;BME280;46911;32.650;-16.902;2023-11-21T09:26:37;102065.34;;;20.99;43.90
61026;BME280;46911;32.650;-16.902;2023-11-21T09:28:40;102064.56;;;21.18;43.48
61026;BME280;46911;32.650;-16.902;2023-11-21T09:30:46;102063.84;;;21.35;43.43
61026;BME280;46911;32.650;-16.902;2023-11-21T09:32:50;102070.16;;;21.55;43.15
61026;BME280;46911;32.650;-16.902;2023-11-21T09:34:51;102076.13;;;21.79;42.56
61026;BME280;46911;32.650;-16.902;2023-11-21T09:36:55;102070.81;;;21.97;40.36
61026;BME280;46911;32.650;-16.902;2023-11-21T09:39:08;102029.72;;;22.10;39.96
61026;BME280;46911;32.650;-16.902;2023-11-21T09:42:02;102068.06;;;22.82;39.26
61026;BME280;46911;32.650;-16.902;2023-11-21T09:43:36;102074.41;;;24.17;38.19
61026;BME280;46911;32.650;-16.902;2023-11-21T09:45:38;102073.34;;;25.87;35.89
61026;BME280;46911;32.650;-16.902;2023-11-21T09:47:46;102069.06;;;27.52;33.18
61026;BME280;46911;32.650;-16.902;2023-11-21T09:49:48;102083.00;;;29.15;30.60
61026;BME280;46911;32.650;-16.902;2023-11-21T09:51:50;102089.16;;;30.45;29.57
61026;BME280;46911;32.650;-16.902;2023-11-21T09:53:55;102093.91;;;31.20;28.80
61026;BME280;46911;32.650;-16.902;2023-11-21T09:55:59;102094.97;;;32.46;27.66
61026;BME280;46911;32.650;-16.902;2023-11-21T09:58:03;102097.88;;;33.49;26.49
61026;BME280;46911;32.650;-16.902;2023-11-21T10:00:12;102098.22;;;34.28;25.57
61026;BME280;46911;32.650;-16.902;2023-11-21T10:02:16;102102.00;;;35.20;24.06
61026;BME280;46911;32.650;-16.902;2023-11-21T10:04:19;102100.81;;;35.94;23.63
61026;BME280;46911;32.650;-16.902;2023-11-21T10:06:22;102106.91;;;36.55;22.68
61026;BME280;46911;32.650;-16.902;2023-11-21T10:08:32;102107.25;;;36.99;21.53
61026;BME280;46911;32.650;-16.902;2023-11-21T10:10:35;102115.97;;;37.49;20.63
61026;BME280;46911;32.650;-16.902;2023-11-21T10:12:37;102111.75;;;37.97;21.08
61026;BME280;46911;32.650;-16.902;2023-11-21T10:14:41;102113.31;;;38.27;22.20
61026;BME280;46911;32.650;-16.902;2023-11-21T10:16:44;102113.97;;;38.57;21.14
61026;BME280;46911;32.650;-16.902;2023-11-21T10:18:52;102115.59;;;38.53;19.93
61026;BME280;46911;32.650;-16.902;2023-11-21T10:20:59;102117.78;;;38.28;22.83
61026;BME280;46911;32.650;-16.902;2023-11-21T10:23:01;102117.09;;;38.21;22.55
61026;BME280;46911;32.650;-16.902;2023-11-21T10:25:05;102124.56;;;37.47;23.32
61026;BME280;46911;32.650;-16.902;2023-11-21T10:27:08;102126.09;;;34.89;26.84